Flight Track Log - Related Links

Times and Time Zones

All times are in EDT time to prevent confusion due to time zone crossing. See the UAL139 flight status page for this flight to view local times or setup timezone preferences in your user account.

Time Position Orientation Groundspeed Altitude Reporting Facility
EDT Latitude Longitude Course Direction KTS MPH feet Rate Location/Type
Sun 04:29:40 PM 39.8570 -104.6750 351° North  Level FlightAware
Sun 04:41:00 PM 39.8886 -105.0675 276° West  Level FlightAware
Sun 04:45:19 PM 39.8670 -104.6960 357° North 149 171 5,100  Level FlightAware
Sun 04:45:45 PM 39.8900 -104.6960 360° North 212 244 5,300 1,250 Climbing FlightAware
Sun 04:46:07 PM 39.9130 -104.6950 North 219 252 6,100 1,680 Climbing FlightAware
Sun 04:46:35 PM 39.9370 -104.7110 333° Northwest 232 267 6,700 1,167 Climbing FlightAware
Sun 04:46:43 PM 39.9410 -104.7220 295° West 241 277 6,800 375 Climbing FlightAware
Sun 04:46:51 PM 39.9430 -104.7340 282° West 250 288 6,800 1,105 Level FlightAware
Sun 04:47:21 PM 39.9420 -104.7810 268° West 274 315 7,500 1,560 Climbing FlightAware
Sun 04:47:41 PM 39.9410 -104.8150 268° West 286 329 8,100 1,957 Climbing FlightAware
Sun 04:48:07 PM 39.9420 -104.8590 272° West 292 336 9,000 1,957 Climbing FlightAware
Sun 04:48:27 PM 39.9430 -104.8940 272° West 288 331 9,600 1,500 Climbing FlightAware
Sun 04:48:39 PM 39.9440 -104.9150 274° West 292 336 9,800 462 Climbing FlightAware
Sun 04:48:53 PM 39.9460 -104.9400 276° West 296 341 9,800 857 Level FlightAware
Sun 04:49:28 PM 39.9480 -105.0050 272° West 327 376 10,500 1,324 Climbing FlightAware
Sun 04:50:01 PM 39.9510 -105.0730 273° West 349 402 11,300 1,859 Climbing FlightAware
Sun 04:50:39 PM 39.9550 -105.1550 274° West 357 411 12,700 2,270 Climbing FlightAware
Sun 04:51:15 PM 39.9580 -105.2320 273° West 364 419 14,100 2,229 Climbing FlightAware
Sun 04:51:49 PM 39.9610 -105.3080 273° West 371 427 15,300 2,091 Climbing FlightAware
Sun 04:52:21 PM 39.9630 -105.3790 272° West 378 435 16,400 2,083 Climbing FlightAware
Sun 04:53:01 PM 39.9670 -105.4720 273° West 383 441 17,800 1,946 Climbing FlightAware
Sun 04:53:35 PM 39.9700 -105.5510 273° West 392 451 18,800 1,714 Climbing FlightAware
Sun 04:54:11 PM 39.9730 -105.6370 273° West 402 463 19,800 1,658 Climbing FlightAware
Sun 04:54:51 PM 39.9730 -105.7350 270° West 407 468 20,900 1,784 Climbing FlightAware
Sun 04:55:25 PM 39.9720 -105.8180 269° West 408 470 22,000 1,667 Climbing FlightAware
Sun 04:56:03 PM 39.9740 -105.9090 272° West 417 480 22,900 1,541 Climbing FlightAware
Sun 04:56:39 PM 39.9790 -106.0030 274° West 421 484 23,900 1,676 Climbing FlightAware
Sun 04:57:11 PM 39.9840 -106.0850 275° West 421 484 24,800 1,588 Climbing FlightAware
Sun 04:57:47 PM 39.9890 -106.1750 274° West 425 489 25,700 1,371 Climbing FlightAware
Sun 04:58:21 PM 39.9930 -106.2630 273° West 431 496 26,400 1,324 Climbing FlightAware
Sun 04:58:55 PM 39.9980 -106.3510 274° West 432 497 27,200 1,333 Climbing FlightAware
Sun 04:59:33 PM 40.0110 -106.4490 280° West 448 516 28,000 1,222 Climbing FlightAware
Sun 04:59:49 PM 40.0260 -106.4890 296° West 458 527 28,300 1,125 Climbing FlightAware
Sun 05:00:21 PM 40.0640 -106.5620 304° West 464 534 28,900 1,091 Climbing FlightAware
Sun 05:00:55 PM 40.1040 -106.6420 303° West 468 539 29,500 741 Climbing FlightAware
Sun 05:01:42 PM 40.1530 -106.7390 303° West 469 540 29,900 286 Climbing FlightAware
Sun 05:02:19 PM 40.1900 -106.8140 303° West 469 540 29,900  Level FlightAware
Sun 05:02:55 PM 40.2260 -106.8870 303° West 469 540 29,900  Level FlightAware
Sun 05:03:31 PM 40.2620 -106.9600 303° West 469 540 29,900  Level FlightAware
Sun 05:04:08 PM 40.2990 -107.0350 303° West 469 540 29,900  Level FlightAware
Sun 05:04:42 PM 40.3330 -107.1040 303° West 469 540 29,900 3,672 Level FlightAware
Sun 05:05:15 PM 40.4140 -107.2590 304° West 482 555 34,000 4,588 Climbing FlightAware
Sun 05:05:50 PM 40.4610 -107.3530 303° West 471 542 35,100 1,676 Climbing FlightAware
Sun 05:06:23 PM 40.4960 -107.4240 303° West 463 533 35,900 692 Climbing FlightAware
Sun 05:07:08 PM 40.5510 -107.5370 303° West 459 528 36,000 75 Climbing FlightAware
Sun 05:07:43 PM 40.5910 -107.6170 303° West 459 528 36,000  Level FlightAware
Sun 05:08:24 PM 40.6340 -107.7060 303° West 459 528 36,000  Level FlightAware
Sun 05:08:59 PM 40.6780 -107.7950 303° West 463 533 36,000  Level FlightAware
Sun 05:09:36 PM 40.7150 -107.8710 303° West 473 544 36,000  Level FlightAware
Sun 05:10:06 PM 40.7580 -107.9590 303° West 467 537 36,000  Level FlightAware
Sun 05:10:41 PM 40.7990 -108.0430 303° West 464 534 36,000  Level FlightAware
Sun 05:11:17 PM 40.8390 -108.1270 302° West 467 537 36,000  Level FlightAware
Sun 05:12:03 PM 40.8840 -108.2210 302° West 471 542 36,000  Level FlightAware
Sun 05:12:39 PM 40.9200 -108.2960 302° West 471 542 36,000  Level FlightAware
Sun 05:13:27 PM 40.9670 -108.3960 302° West 471 542 36,000  Level FlightAware
Sun 05:14:05 PM 41.0040 -108.4750 302° West 471 542 36,000  Level FlightAware
Sun 05:14:42 PM 41.0400 -108.5520 302° West 471 542 36,000  Level FlightAware
Sun 05:15:18 PM 41.0760 -108.6270 303° West 471 542 36,000  Level FlightAware
Sun 05:15:56 PM 41.1130 -108.7060 302° West 471 542 36,000  Level FlightAware
Sun 05:16:32 PM 41.1480 -108.7810 302° West 471 542 36,000  Level FlightAware
Sun 05:17:08 PM 41.1840 -108.8560 303° West 471 542 36,000  Level FlightAware
Sun 05:17:44 PM 41.2190 -108.9320 301° West 471 542 36,000  Level FlightAware
Sun 05:18:21 PM 41.2550 -109.0090 302° West 471 542 36,000  Level FlightAware
Sun 05:18:55 PM 41.2890 -109.0800 303° West 471 542 36,000  Level FlightAware
Sun 05:19:33 PM 41.3260 -109.1590 302° West 471 542 36,000  Level FlightAware
Sun 05:20:08 PM 41.3600 -109.2330 301° West 471 542 36,000  Level FlightAware
Sun 05:20:44 PM 41.3960 -109.3080 303° West 471 542 36,000  Level FlightAware
Sun 05:21:21 PM 41.4320 -109.3850 302° West 471 542 36,000 732 Level FlightAware
Sun 05:23:28 PM 41.6640 -109.8830 302° West 459 528 38,000 694 Climbing FlightAware
Sun 05:24:14 PM 41.7110 -109.9860 301° West 459 528 38,000  Level FlightAware
Sun 05:24:50 PM 41.7440 -110.0610 301° West 459 528 38,000  Level FlightAware
Sun 05:25:27 PM 41.7790 -110.1380 301° West 459 528 38,000  Level FlightAware
Sun 05:26:03 PM 41.8120 -110.2130 301° West 459 528 38,000  Level FlightAware
Sun 05:26:39 PM 41.8460 -110.2870 302° West 459 528 38,000  Level FlightAware
Sun 05:27:15 PM 41.8790 -110.3620 301° West 459 528 38,000  Level FlightAware
Sun 05:27:51 PM 41.9130 -110.4370 301° West 459 528 38,000  Level FlightAware
Sun 05:28:28 PM 41.9470 -110.5140 301° West 459 528 38,000  Level FlightAware
Sun 05:29:05 PM 41.9810 -110.5910 301° West 459 528 38,000  Level FlightAware
Sun 05:29:39 PM 42.0730 -110.7930 302° West 469 540 38,000  Level FlightAware
Sun 05:30:29 PM 42.1220 -110.9060 300° West 469 540 38,000  Level FlightAware
Sun 05:31:03 PM 42.1650 -111.0000 302° West 472 543 38,000  Level FlightAware
Sun 05:31:41 PM 42.2040 -111.0910 300° West 472 543 38,000  Level FlightAware
Sun 05:32:07 PM 42.2386 -111.1690 301° West 474 545 38,000  Level FlightAware
Sun 05:32:49 PM 42.2844 -111.2740 301° West 473 544 38,000  Level FlightAware
Sun 05:33:27 PM 42.3250 -111.3690 300° West 474 545 38,000  Level FlightAware
Sun 05:33:51 PM 42.3533 -111.4330 301° West 472 543 38,000  Level FlightAware
Sun 05:34:43 PM 42.4103 -111.5650 300° West 469 540 38,000  Level FlightAware
Sun 05:35:25 PM 42.4555 -111.6700 300° West 470 541 38,000  Level FlightAware
Sun 05:35:56 PM 42.4898 -111.7500 300° West 471 542 38,000  Level FlightAware
Sun 05:36:47 PM 42.5448 -111.8810 300° West 464 534 38,000  Level FlightAware
Sun 05:36:55 PM 42.5517 -111.9020 294° West 458 527 38,000  Level FlightAware
Sun 05:37:03 PM 42.5575 -111.9220 291° West 454 522 38,000  Level FlightAware
Sun 05:37:33 PM 42.5781 -112.0030 289° West 452 520 38,000  Level FlightAware
Sun 05:38:32 PM 42.6220 -112.0630 315° West 468 539 38,000  Level FlightAware
Sun 05:38:58 PM 42.6348 -112.2300 276° West 457 526 38,000  Level FlightAware
Sun 05:40:01 PM 42.6780 -112.4010 289° West 458 527 38,000  Level FlightAware
Sun 05:40:52 PM 42.7120 -112.5370 289° West 454 522 38,000  Level FlightAware
Sun 05:41:47 PM 42.7470 -112.6740 289° West 455 524 38,000  Level FlightAware
Sun 05:43:03 PM 42.8030 -112.8920 289° West 457 526 38,000  Level FlightAware
Sun 05:43:37 PM 42.8270 -112.9850 289° West 461 531 38,000  Level FlightAware
Sun 05:44:13 PM 42.8530 -113.0850 290° West 461 531 38,000  Level FlightAware
Sun 05:44:50 PM 42.8787 -113.1860 289° West 461 531 38,000  Level FlightAware
Sun 05:45:13 PM 42.8976 -113.2480 293° West 472 543 38,000  Level FlightAware
Sun 05:45:59 PM 42.9544 -113.3650 304° West 481 554 38,000  Level FlightAware
Sun 05:46:33 PM 42.9990 -113.4480 306° West 493 567 38,000  Level FlightAware
Sun 05:47:09 PM 43.0490 -113.5410 306° West 493 567 38,000  Level FlightAware
Sun 05:47:43 PM 43.0940 -113.6250 306° West 492 566 38,000  Level FlightAware
Sun 05:48:11 PM 43.1320 -113.6960 306° West 491 565 38,000  Level FlightAware
Sun 05:48:52 PM 43.1860 -113.7970 306° West 492 566 38,000  Level FlightAware
Sun 05:49:29 PM 43.2360 -113.8900 306° West 494 568 38,000  Level FlightAware
Sun 05:50:01 PM 43.2800 -113.9730 306° West 495 570 38,000  Level FlightAware
Sun 05:50:37 PM 43.3280 -114.0650 306° West 495 570 38,000  Level FlightAware
Sun 05:51:15 PM 43.3800 -114.1620 306° West 494 568 38,000  Level FlightAware
Sun 05:51:47 PM 43.4220 -114.2430 306° West 497 572 38,000  Level FlightAware
Sun 05:52:23 PM 43.4710 -114.3350 306° West 496 571 38,000  Level FlightAware
Sun 05:52:59 PM 43.5190 -114.4270 306° West 495 570 38,000  Level FlightAware
Sun 05:53:33 PM 43.5640 -114.5140 306° West 493 567 38,000  Level FlightAware
Sun 05:54:07 PM 43.6090 -114.6020 305° West 491 565 38,000  Level FlightAware
Sun 05:54:41 PM 43.6530 -114.6870 306° West 493 567 38,000  Level FlightAware
Sun 05:55:17 PM 43.7020 -114.7810 306° West 493 567 38,000  Level FlightAware
Sun 05:55:55 PM 43.7520 -114.8770 306° West 497 572 38,000  Level FlightAware
Sun 05:56:27 PM 43.7950 -114.9610 305° West 500 575 38,000  Level FlightAware
Sun 05:57:03 PM 43.8420 -115.0540 305° West 498 573 38,000  Level FlightAware
Sun 05:57:37 PM 43.8870 -115.1420 305° West 495 570 38,000  Level FlightAware
Sun 05:58:13 PM 43.9340 -115.2350 305° West 496 571 38,000  Level FlightAware
Sun 05:58:49 PM 43.9820 -115.3290 305° West 495 570 38,000  Level FlightAware
Sun 05:59:25 PM 44.0290 -115.4230 305° West 496 571 38,000  Level FlightAware
Sun 05:59:56 PM 44.0690 -115.5020 305° West 496 571 38,000  Level FlightAware
Sun 06:00:34 PM 44.1190 -115.6010 305° West 498 573 38,000  Level FlightAware
Sun 06:01:09 PM 44.1650 -115.6940 305° West 499 574 38,000  Level FlightAware
Sun 06:01:43 PM 44.2100 -115.7830 305° West 499 574 38,000  Level FlightAware
Sun 06:02:19 PM 44.2580 -115.8790 305° West 497 572 38,000  Level FlightAware
Sun 06:02:53 PM 44.3030 -115.9700 305° West 497 572 38,000  Level FlightAware
Sun 06:03:25 PM 44.3430 -116.0520 304° West 497 572 38,000  Level FlightAware
Sun 06:04:03 PM 44.3940 -116.1540 305° West 496 571 38,000  Level FlightAware
Sun 06:04:37 PM 44.4310 -116.2320 304° West 496 571 38,000  Level FlightAware
Sun 06:05:13 PM 44.4710 -116.3140 304° West 496 571 38,000  Level FlightAware
Sun 06:05:48 PM 44.5290 -116.4310 305° West 497 572 38,000  Level FlightAware
Sun 06:06:22 PM 44.5730 -116.5220 304° West 499 574 38,000  Level FlightAware
Sun 06:07:00 PM 44.6240 -116.6260 305° West 502 578 38,000  Level FlightAware
Sun 06:07:32 PM 44.6650 -116.7110 304° West 502 578 38,000  Level FlightAware
Sun 06:08:09 PM 44.7120 -116.8090 304° West 499 574 38,000  Level FlightAware
Sun 06:08:44 PM 44.7570 -116.9030 304° West 500 575 38,000  Level FlightAware
Sun 06:09:18 PM 44.8000 -116.9940 304° West 500 575 38,000  Level FlightAware
Sun 06:09:52 PM 44.8460 -117.0880 305° West 500 575 38,000  Level FlightAware
Sun 06:10:30 PM 44.8940 -117.1890 304° West 503 579 38,000  Level FlightAware
Sun 06:11:02 PM 44.9360 -117.2780 304° West 505 581 38,000  Level FlightAware
Sun 06:11:36 PM 44.9790 -117.3700 303° West 505 581 38,000  Level FlightAware
Sun 06:12:14 PM 45.0290 -117.4760 304° West 505 581 38,000  Level FlightAware
Sun 06:12:50 PM 45.0750 -117.5750 303° West 506 582 38,000  Level FlightAware
Sun 06:13:22 PM 45.1160 -117.6620 304° West 507 583 38,000  Level FlightAware
Sun 06:13:58 PM 45.1630 -117.7630 303° West 511 588 38,000  Level FlightAware
Sun 06:14:30 PM 45.2040 -117.8510 303° West 513 590 38,000  Level FlightAware
Sun 06:15:06 PM 45.2510 -117.9520 303° West 509 586 38,000  Level FlightAware
Sun 06:15:42 PM 45.2980 -118.0540 303° West 510 587 38,000  Level FlightAware
Sun 06:16:16 PM 45.3410 -118.1490 303° West 511 588 38,000  Level FlightAware
Sun 06:16:52 PM 45.3860 -118.2460 303° West 512 589 38,000  Level FlightAware
Sun 06:17:29 PM 45.4330 -118.3490 303° West 511 588 38,000  Level FlightAware
Sun 06:18:02 PM 45.4760 -118.4450 303° West 509 586 38,000  Level FlightAware
Sun 06:18:38 PM 45.5220 -118.5460 303° West 509 586 38,000  Level FlightAware
Sun 06:19:14 PM 45.5680 -118.6480 303° West 507 583 38,000  Level FlightAware
Sun 06:19:50 PM 45.6130 -118.7470 303° West 512 589 38,000  Level FlightAware
Sun 06:20:21 PM 45.6510 -118.8340 302° West 514 592 38,000  Level FlightAware
Sun 06:20:58 PM 45.7010 -118.9420 304° West 518 596 38,000  Level FlightAware
Sun 06:21:32 PM 45.7500 -119.0420 305° West 519 597 38,000  Level FlightAware
Sun 06:22:09 PM 45.8010 -119.1420 306° West 519 597 38,000  Level FlightAware
Sun 06:22:42 PM 45.8460 -119.2310 306° West 515 593 38,000  Level FlightAware
Sun 06:23:12 PM 45.8880 -119.3150 306° West 512 589 38,000  Level FlightAware
Sun 06:23:51 PM 45.9430 -119.4260 305° West 512 589 38,000  Level FlightAware
Sun 06:24:25 PM 45.9890 -119.5200 305° West 517 595 38,000  Level FlightAware
Sun 06:25:02 PM 46.0400 -119.6230 306° West 520 598 38,000  Level FlightAware
Sun 06:25:36 PM 46.0870 -119.7180 306° West 519 597 38,000  Level FlightAware
Sun 06:26:13 PM 46.1390 -119.8230 306° West 520 598 38,000  Level FlightAware
Sun 06:26:48 PM 46.1870 -119.9220 305° West 519 597 38,000  Level FlightAware
Sun 06:27:25 PM 46.2390 -120.0270 306° West 521 600 38,000  Level FlightAware
Sun 06:27:57 PM 46.2830 -120.1200 304° West 522 601 38,000  Level FlightAware
Sun 06:28:32 PM 46.3300 -120.2170 305° West 523 602 38,000  Level FlightAware
Sun 06:28:52 PM 46.3591 -120.2760 306° West 523 602 38,000  Level FlightAware
Sun 06:29:22 PM 46.4009 -120.3630 305° West 520 598 38,000  Level FlightAware
Sun 06:29:53 PM 46.4421 -120.4490 305° West 519 597 38,000  Level FlightAware
Sun 06:30:25 PM 46.4867 -120.5420 305° West 515 593 38,000  Level FlightAware
Sun 06:30:57 PM 46.5296 -120.6320 305° West 514 592 38,000  Level FlightAware
Sun 06:31:28 PM 46.5707 -120.7190 305° West 517 595 38,000  Level FlightAware
Sun 06:31:58 PM 46.6121 -120.8060 305° West 518 596 38,000  Level FlightAware
Sun 06:32:28 PM 46.6533 -120.8930 305° West 518 596 38,000  Level FlightAware
Sun 06:32:59 PM 46.6948 -120.9810 305° West 517 595 38,000  Level FlightAware
Sun 06:33:30 PM 46.7355 -121.0680 304° West 517 595 38,000  Level FlightAware
Sun 06:34:00 PM 46.7766 -121.1560 304° West 518 596 38,000  Level FlightAware
Sun 06:34:30 PM 46.8176 -121.2440 304° West 519 597 38,000  Level FlightAware
Sun 06:35:01 PM 46.8578 -121.3300 304° West 516 594 38,000  Level FlightAware
Sun 06:35:31 PM 46.8984 -121.4180 304° West 516 594 38,000  Level FlightAware
Sun 06:36:01 PM 46.9384 -121.5050 304° West 513 590 38,000  Level FlightAware
Sun 06:36:31 PM 46.9780 -121.5910 304° West 512 589 38,000  Level FlightAware
Sun 06:37:02 PM 47.0181 -121.6780 304° West 512 589 38,000  Level FlightAware
Sun 06:37:32 PM 47.0578 -121.7650 304° West 512 589 38,000  Level FlightAware
Sun 06:38:02 PM 47.0979 -121.8520 304° West 514 592 38,000  Level FlightAware
Sun 06:38:33 PM 47.1382 -121.9410 304° West 513 590 38,000  Level FlightAware
Sun 06:39:03 PM 47.1780 -122.0290 304° West 512 589 38,000  Level FlightAware
Sun 06:39:33 PM 47.2175 -122.1160 304° West 512 589 38,000  Level FlightAware
Sun 06:40:04 PM 47.2575 -122.2050 304° West 513 590 38,000  Level FlightAware
Sun 06:40:34 PM 47.2973 -122.2930 304° West 515 593 38,000  Level FlightAware
Sun 06:41:04 PM 47.3364 -122.3810 303° West 514 592 38,000  Level FlightAware
Sun 06:41:35 PM 47.3760 -122.4700 303° West 513 590 38,000  Level FlightAware
Sun 06:42:05 PM 47.4158 -122.5590 303° West 514 592 38,000  Level FlightAware
Sun 06:42:35 PM 47.4546 -122.6470 303° West 512 589 38,000  Level FlightAware
Sun 06:43:06 PM 47.4939 -122.7360 303° West 513 590 38,000  Level FlightAware
Sun 06:43:42 PM 47.5405 -122.8420 303° West 510 587 38,000  Level FlightAware
Sun 06:44:12 PM 47.5794 -122.9300 303° West 508 585 38,000  Level FlightAware
Sun 06:44:43 PM 47.6178 -123.0180 303° West 507 583 38,000  Level FlightAware
Sun 06:45:13 PM 47.6567 -123.1070 303° West 509 586 38,000  Level FlightAware
Sun 06:45:43 PM 47.6948 -123.1950 303° West 507 583 38,000  Level FlightAware
Sun 06:46:17 PM 47.7382 -123.2950 303° West 505 581 38,000  Level FlightAware
Sun 06:46:48 PM 47.7762 -123.3830 303° West 507 583 38,000  Level FlightAware
Sun 06:47:19 PM 47.8149 -123.4730 303° West 505 581 38,000  Level FlightAware
Sun 06:47:49 PM 47.8524 -123.5610 302° West 504 580 38,000  Level FlightAware
Sun 06:48:20 PM 47.8906 -123.6500 303° West 504 580 38,000  Level FlightAware
Sun 06:48:50 PM 47.9282 -123.7380 303° West 503 579 38,000  Level FlightAware
Sun 06:49:21 PM 47.9671 -123.8330 301° West 502 578 38,000  Level FlightAware
Sun 06:49:52 PM 48.0006 -123.9250 299° West 501 577 38,000  Level FlightAware
Sun 06:50:22 PM 48.0326 -124.0180 297° West 500 575 38,000  Level FlightAware
Sun 06:50:53 PM 48.0645 -124.1110 297° West 500 575 38,000  Level FlightAware
Sun 06:51:23 PM 48.0960 -124.2030 297° West 500 575 38,000  Level FlightAware
Sun 06:51:54 PM 48.1285 -124.2990 297° West 501 577 38,000  Level FlightAware
Sun 06:52:29 PM 48.1654 -124.4080 297° West 501 577 38,000  Level FlightAware
Sun 06:53:09 PM 48.2068 -124.5320 297° West 499 574 38,000  Level FlightAware
Sun 06:53:45 PM 48.2430 -124.6410 297° West 498 573 38,000  Level FlightAware
Sun 06:54:20 PM 48.2800 -124.7480 297° West 496 571 38,000  Level FlightAware
Sun 06:54:39 PM 48.2997 -124.8060 297° West 496 571 38,000  Level FlightAware
Sun 06:55:10 PM 48.3322 -124.9010 297° West 496 571 38,000  Level FlightAware
Sun 06:55:41 PM 48.3644 -124.9960 297° West 496 571 38,000  Level FlightAware
Sun 06:56:29 PM 48.4142 -125.1440 297° West 496 571 38,000  Level FlightAware
Sun 06:56:59 PM 48.4440 -125.2340 297° West 496 571 38,000  Level FlightAware
Sun 06:57:39 PM 48.4840 -125.3520 297° West 498 573 38,000  Level FlightAware
Sun 06:58:09 PM 48.5150 -125.4460 296° West 497 572 38,000  Level FlightAware
Sun 06:58:45 PM 48.5520 -125.5580 297° West 497 572 38,000  Level FlightAware
Sun 06:59:23 PM 48.5900 -125.6740 296° West 497 572 38,000  Level FlightAware
Sun 06:59:55 PM 48.6240 -125.7770 297° West 496 571 38,000  Level FlightAware
Sun 07:00:49 PM 48.6720 -125.9200 297° West 497 572 38,000  Level FlightAware
Sun 07:01:21 PM 48.7120 -126.0460 296° West 493 567 38,000  Level FlightAware
Sun 07:01:55 PM 48.7460 -126.1510 296° West 490 564 38,000  Level FlightAware
Sun 07:02:29 PM 48.7800 -126.2570 296° West 487 560 38,000  Level FlightAware
Sun 07:03:06 PM 48.8150 -126.3660 296° West 489 563 38,000  Level FlightAware
Sun 07:03:42 PM 48.8460 -126.4670 295° West 490 564 38,000  Level FlightAware
Sun 07:04:13 PM 48.8830 -126.5790 297° West 492 566 38,000  Level FlightAware
Sun 07:04:51 PM 48.9200 -126.6950 296° West 493 567 38,000  Level FlightAware
Sun 07:05:24 PM 48.9510 -126.7940 296° West 494 568 38,000  Level FlightAware
Sun 07:06:01 PM 48.9880 -126.9130 295° West 494 568 38,000  Level FlightAware
Sun 07:06:33 PM 49.0200 -127.0130 296° West 494 568 38,000  Level FlightAware
Sun 07:07:11 PM 49.0570 -127.1340 295° West 494 568 38,000  Level FlightAware
Sun 07:07:43 PM 49.0870 -127.2310 295° West 496 571 38,000  Level FlightAware
Sun 07:08:19 PM 49.1240 -127.3480 296° West 497 572 38,000  Level FlightAware
Sun 07:08:55 PM 49.1580 -127.4620 295° West 497 572 38,000  Level FlightAware
Sun 07:09:29 PM 49.1910 -127.5690 295° West 495 570 38,000  Level FlightAware
Sun 07:10:20 PM 49.2360 -127.7190 295° West 493 567 38,000  Level FlightAware
Sun 07:10:49 PM 49.2670 -127.8200 295° West 495 570 38,000  Level FlightAware
Sun 07:11:45 PM 49.3080 -127.9550 295° West 497 572 38,000  Level FlightAware
Sun 07:12:19 PM 49.3520 -128.1020 295° West 498 573 38,000  Level FlightAware
Sun 07:12:57 PM 49.3830 -128.2050 295° West 498 573 38,000  Level FlightAware
Sun 07:13:29 PM 49.4200 -128.3310 294° West 495 570 38,000  Level FlightAware
Sun 07:14:04 PM 49.4500 -128.4330 294° West 495 570 38,000  Level FlightAware
Sun 07:14:42 PM 49.4810 -128.5360 295° West 495 570 38,000  Level FlightAware
Sun 07:15:18 PM 49.5110 -128.6340 295° West 495 570 38,000  Level FlightAware
Sun 07:15:54 PM 49.5410 -128.7310 296° West 495 570 38,000  Level FlightAware
Sun 07:16:30 PM 49.5700 -128.8290 295° West 495 570 38,000  Level FlightAware
Sun 07:17:07 PM 49.6010 -128.9300 295° West 495 570 38,000  Level FlightAware
Sun 07:17:44 PM 49.6310 -129.0310 295° West 495 570 38,000  Level FlightAware
Sun 07:18:20 PM 49.6610 -129.1290 295° West 495 570 38,000  Level FlightAware
Sun 07:18:56 PM 49.6900 -129.2270 295° West 495 570 38,000  Level FlightAware
Sun 07:19:32 PM 49.7200 -129.3250 295° West 495 570 38,000  Level FlightAware
Sun 07:20:08 PM 49.7500 -129.4240 295° West 495 570 38,000  Level FlightAware
Sun 07:20:45 PM 49.7800 -129.5250 295° West 495 570 38,000  Level FlightAware
Sun 07:21:21 PM 49.8100 -129.6230 295° West 495 570 38,000  Level FlightAware
Sun 07:21:57 PM 49.8390 -129.7220 294° West 495 570 38,000  Level FlightAware
Sun 07:22:33 PM 49.8690 -129.8200 295° West 495 570 38,000  Level FlightAware
Sun 07:23:09 PM 49.8980 -129.9190 294° West 495 570 38,000  Level FlightAware
Sun 07:23:45 PM 49.9280 -130.0170 295° West 495 570 38,000  Level FlightAware
Sun 07:24:47 PM 50.0167 -130.5333 295° West 490 564 38,000  Level Vancouver Center
Sun 07:25:47 PM 50.0667 -130.7167 293° West 490 564 38,000  Level Vancouver Center
Sun 07:26:47 PM 50.1167 -130.9333 290° West 490 564 38,000  Level Vancouver Center
Sun 07:27:47 PM 50.1833 -131.1333 298° West 490 564 38,000  Level Vancouver Center
Sun 07:28:47 PM 50.2333 -131.3167 293° West 500 575 38,000  Level Vancouver Center
Sun 07:29:47 PM 50.2833 -131.5500 289° West 500 575 38,000  Level Vancouver Center
Sun 07:30:47 PM 50.3333 -131.7333 293° West 500 575 38,000  Level Vancouver Center
Sun 07:31:47 PM 50.3833 -131.9333 291° West 500 575 38,000  Level Vancouver Center
Sun 07:32:47 PM 50.4333 -132.1167 293° West 500 575 38,000  Level Vancouver Center
Sun 07:33:47 PM 50.4833 -132.3333 290° West 500 575 38,000  Level Vancouver Center
Sun 07:34:47 PM 50.5333 -132.5333 292° West 500 575 38,000  Level Vancouver Center
Sun 07:35:47 PM 50.5833 -132.7500 290° West 500 575 38,000  Level Vancouver Center
Sun 07:36:47 PM 50.6333 -132.9500 292° West 490 564 38,000  Level Vancouver Center
Sun 07:37:47 PM 50.6833 -133.1500 292° West 500 575 38,000  Level Vancouver Center
Sun 07:38:47 PM 50.7333 -133.3667 290° West 500 575 38,000  Level Vancouver Center
Sun 07:39:47 PM 50.7667 -133.5667 285° West 500 575 38,000  Level Vancouver Center
Sun 07:40:47 PM 50.8333 -133.7667 298° West 500 575 38,000  Level Vancouver Center
Sun 07:41:47 PM 50.8667 -133.9833 284° West 510 587 38,000  Level Vancouver Center
Sun 07:42:47 PM 50.9333 -134.2000 296° West 490 564 38,000  Level Vancouver Center
Sun 07:43:47 PM 50.9667 -134.4000 285° West 500 575 38,000  Level Vancouver Center
Sun 07:44:03 PM 51.0000 -134.4000 272° West 494 568 38,000  Level Oakland Oceanic
Sun 07:44:47 PM 50.9833 -134.6167 272° West 490 564 38,000  Level Vancouver Center
Sun 07:45:47 PM 50.9833 -134.8333 270° West 500 575 38,000  Level Vancouver Center
Sun 07:46:47 PM 50.9833 -135.0667 270° West 500 575 38,000  Level Vancouver Center
Sun 07:47:45 PM 51.0167 -135.2167 272° West 494 568 38,000  Level Oakland Oceanic
Sun 07:48:47 PM 51.0000 -135.4833 272° West 500 575 38,000  Level Vancouver Center
Sun 07:49:47 PM 51.0000 -135.7167 270° West 500 575 38,000 250 Level Vancouver Center
Sun 07:50:47 PM 51.0000 -135.9333 270° West 500 575 38,500  Climbing Vancouver Center
Sun 07:51:47 PM 51.0167 -136.1500 277° West 500 575 38,000 -250 Descending Vancouver Center
Sun 07:52:47 PM 50.9833 -136.3333 254° West 510 587 38,000  Level Vancouver Center
Sun 07:54:00 PM 50.9882 -136.5854 272° West  Level FlightAware
Sun 07:55:40 PM 51.0333 -136.9333 270° West 495 570 38,000  Level Oakland Oceanic
Sun 08:01:00 PM 51.0306 -138.0290 269° West 495 570 38,000  Level FlightAware
Sun 08:02:00 PM 51.0289 -138.2481 269° West 495 570 38,000  Level FlightAware
Sun 08:05:00 PM 51.0211 -138.9053 269° West 495 570 38,000  Level FlightAware
Sun 08:06:00 PM 51.0177 -139.1243 268° West 495 570 38,000  Level FlightAware
Sun 08:07:00 PM 51.0139 -139.3433 268° West 495 570 38,000  Level FlightAware
Sun 08:08:00 PM 51.0097 -139.5623 268° West 495 570 38,000  Level FlightAware
Sun 08:09:00 PM 51.0050 -139.7811 268° West 495 570 38,000  Level FlightAware
Sun 08:09:32 PM 51.0000 -139.9333 270° West 485 558 38,000  Level Oakland Oceanic
Sun 08:09:54 PM 51.0000 -140.0000 257° West 484 557 38,000  Level Oakland Oceanic
Sun 08:10:00 PM 51.0000 -140.0000 257° West 495 570 38,000  Level FlightAware
Sun 08:11:00 PM 50.9698 -140.1998 256° West 495 570 38,000  Level FlightAware
Sun 08:12:00 PM 50.9393 -140.3993 256° West 495 570 38,000  Level FlightAware
Sun 08:13:00 PM 50.9085 -140.5986 256° West 495 570 38,000  Level FlightAware
Sun 08:14:00 PM 50.8773 -140.7976 256° West 495 570 38,000  Level FlightAware
Sun 08:15:00 PM 50.8458 -140.9963 256° West 485 558 38,000  Level FlightAware
Sun 08:16:00 PM 50.8063 -141.2424 256° West 484 557 38,000  Level FlightAware
Sun 08:17:00 PM 50.7727 -141.4484 255° West 484 557 38,000  Level FlightAware
Sun 08:18:00 PM 50.7388 -141.6542 255° West 484 557 38,000  Level FlightAware
Sun 08:19:00 PM 50.7045 -141.8596 255° West 484 557 38,000  Level FlightAware
Sun 08:20:00 PM 50.6698 -142.0648 255° West 484 557 38,000  Level FlightAware
Sun 08:21:00 PM 50.6348 -142.2696 255° West 484 557 38,000  Level FlightAware
Sun 08:22:00 PM 50.5994 -142.4742 255° West 484 557 38,000  Level FlightAware
Sun 08:23:00 PM 50.5637 -142.6784 255° West 484 557 38,000  Level FlightAware
Sun 08:23:24 PM 50.5500 -142.7833 254° West 472 543 38,000  Level Oakland Oceanic
Sun 08:24:00 PM 50.5276 -142.8823 254° West 484 557 38,000  Level FlightAware
Sun 08:25:00 PM 50.4912 -143.0859 254° West 484 557 38,000  Level FlightAware
Sun 08:26:00 PM 50.4544 -143.2892 254° West 484 557 38,000  Level FlightAware
Sun 08:27:00 PM 50.4173 -143.4922 254° West 484 557 38,000  Level FlightAware
Sun 08:28:00 PM 50.3798 -143.6948 254° West 484 557 38,000  Level FlightAware
Sun 08:29:00 PM 50.3419 -143.8972 254° West 484 557 38,000  Level FlightAware
Sun 08:30:00 PM 50.2986 -144.1468 253° West 472 543 38,000  Level FlightAware
Sun 08:31:00 PM 50.2614 -144.3404 253° West 472 543 38,000  Level FlightAware
Sun 08:32:00 PM 50.2238 -144.5337 253° West 472 543 38,000  Level FlightAware
Sun 08:33:00 PM 50.1860 -144.7267 253° West 472 543 38,000  Level FlightAware
Sun 08:34:00 PM 50.1478 -144.9193 253° West 472 543 38,000  Level FlightAware
Sun 08:35:00 PM 50.1093 -145.1117 253° West 472 543 38,000  Level FlightAware
Sun 08:36:00 PM 50.0705 -145.3037 252° West 472 543 38,000  Level FlightAware
Sun 08:37:00 PM 50.0314 -145.4955 252° West 472 543 38,000  Level FlightAware
Sun 08:37:16 PM 50.0333 -145.4667 252° West 463 533 38,000  Level Oakland Oceanic
Sun 08:38:00 PM 49.9919 -145.6869 252° West 472 543 38,000  Level FlightAware
Sun 08:39:00 PM 49.9522 -145.8780 252° West 472 543 38,000  Level FlightAware
Sun 08:40:00 PM 49.9121 -146.0688 252° West 472 543 38,000  Level FlightAware
Sun 08:41:00 PM 49.8717 -146.2593 252° West 472 543 38,000  Level FlightAware
Sun 08:42:00 PM 49.8310 -146.4494 252° West 472 543 38,000  Level FlightAware
Sun 08:43:00 PM 49.7917 -146.6178 252° West 463 533 38,000  Level FlightAware
Sun 08:44:00 PM 49.7503 -146.8086 251° West 463 533 38,000  Level FlightAware
Sun 08:45:00 PM 49.7087 -146.9990 251° West 463 533 38,000  Level FlightAware
Sun 08:46:00 PM 49.6667 -147.1890 251° West 463 533 38,000  Level FlightAware
Sun 08:47:00 PM 49.6244 -147.3788 251° West 463 533 38,000  Level FlightAware
Sun 08:48:00 PM 49.5817 -147.5682 251° West 463 533 38,000  Level FlightAware
Sun 08:49:00 PM 49.5388 -147.7573 251° West 463 533 38,000  Level FlightAware
Sun 08:50:00 PM 49.4956 -147.9460 250° West 463 533 38,000  Level FlightAware
Sun 08:51:00 PM 49.4520 -148.1345 250° West 463 533 38,000  Level FlightAware
Sun 08:51:08 PM 49.4833 -148.0167 250° West 451 519 38,000  Level Oakland Oceanic
Sun 08:52:00 PM 49.4082 -148.3226 250° West 463 533 38,000  Level FlightAware
Sun 08:53:00 PM 49.3640 -148.5103 250° West 463 533 38,000  Level FlightAware
Sun 08:54:00 PM 49.3196 -148.6977 250° West 463 533 38,000  Level FlightAware
Sun 08:55:00 PM 49.2748 -148.8848 250° West 463 533 38,000  Level FlightAware
Sun 08:56:00 PM 49.2298 -149.0715 250° West 463 533 38,000  Level FlightAware
Sun 08:57:00 PM 49.2239 -149.1033 249° West 451 519 38,000  Level FlightAware
Sun 08:58:00 PM 49.1797 -149.2833 249° West 451 519 38,000  Level FlightAware
Sun 08:59:00 PM 49.1352 -149.4630 249° West 451 519 38,000  Level FlightAware
Sun 09:00:00 PM 49.0904 -149.6423 249° West 451 519 38,000  Level FlightAware
Sun 09:01:00 PM 49.0453 -149.8213 249° West 451 519 38,000  Level FlightAware
Sun 09:02:00 PM 49.0000 -150.0000 257° West 451 519 38,000  Level FlightAware
Sun 09:02:03 PM 49.0000 -150.0000 257° West 462 532 38,000  Level Oakland Oceanic
Sun 09:03:00 PM 48.9710 -150.1919 257° West 451 519 38,000  Level FlightAware
Sun 09:04:00 PM 48.9418 -150.3836 257° West 451 519 38,000  Level FlightAware
Sun 09:05:00 PM 48.9122 -150.5750 257° West 451 519 38,000  Level FlightAware
Sun 09:05:00 PM 48.9167 -150.5500 257° West 462 532 38,000  Level Oakland Oceanic
Sun 09:06:00 PM 48.8822 -150.7662 257° West 451 519 38,000  Level FlightAware
Sun 09:07:00 PM 48.8520 -150.9572 256° West 451 519 38,000  Level FlightAware
Sun 09:08:00 PM 48.8215 -151.1480 256° West 462 532 38,000  Level FlightAware
Sun 09:09:00 PM 48.7906 -151.3385 256° West 462 532 38,000  Level FlightAware
Sun 09:10:00 PM 48.7594 -151.5288 256° West 462 532 38,000  Level FlightAware
Sun 09:11:00 PM 48.7321 -151.6969 256° West 462 532 38,000  Level FlightAware
Sun 09:12:00 PM 48.7003 -151.8873 256° West 462 532 38,000  Level FlightAware
Sun 09:13:00 PM 48.6681 -152.0773 256° West 462 532 38,000  Level FlightAware
Sun 09:14:00 PM 48.6356 -152.2672 255° West 462 532 38,000  Level FlightAware
Sun 09:15:00 PM 48.6028 -152.4568 255° West 462 532 38,000  Level FlightAware
Sun 09:16:00 PM 48.5697 -152.6461 255° West 462 532 38,000  Level FlightAware
Sun 09:17:00 PM 48.5363 -152.8352 255° West 462 532 38,000  Level FlightAware
Sun 09:18:00 PM 48.5026 -153.0241 255° West 462 532 38,000 1,071 Level FlightAware
Sun 09:18:52 PM 48.4833 -153.1000 255° West 464 534 40,000  Climbing Oakland Oceanic
Sun 09:19:00 PM 48.4686 -153.2127 255° West 462 532 38,000 -1,765 Descending FlightAware
Sun 09:20:00 PM 48.4342 -153.4010 255° West 462 532 38,000  Level FlightAware
Sun 09:21:00 PM 48.3996 -153.5891 254° West 462 532 38,000  Level FlightAware
Sun 09:22:00 PM 48.3646 -153.7769 254° West 462 532 38,000  Level FlightAware
Sun 09:23:00 PM 48.3294 -153.9645 254° West 462 532 38,000  Level FlightAware
Sun 09:24:00 PM 48.2938 -154.1518 254° West 462 532 38,000 1,000 Level FlightAware
Sun 09:25:00 PM 48.2770 -154.2151 254° West 464 534 40,000 1,000 Climbing FlightAware
Sun 09:26:00 PM 48.2415 -154.4001 254° West 464 534 40,000  Level FlightAware
Sun 09:27:00 PM 48.2058 -154.5848 254° West 464 534 40,000  Level FlightAware
Sun 09:28:00 PM 48.1698 -154.7692 254° West 464 534 40,000  Level FlightAware
Sun 09:29:00 PM 48.1334 -154.9534 253° West 464 534 40,000  Level FlightAware
Sun 09:30:00 PM 48.0968 -155.1374 253° West 464 534 40,000  Level FlightAware
Sun 09:31:00 PM 48.0599 -155.3210 253° West 464 534 40,000  Level FlightAware
Sun 09:32:00 PM 48.0227 -155.5044 253° West 464 534 40,000  Level FlightAware
Sun 09:32:44 PM 48.0000 -155.6667 253° West 473 544 40,000  Level Oakland Oceanic
Sun 09:33:00 PM 47.9852 -155.6876 253° West 464 534 40,000  Level FlightAware
Sun 09:34:00 PM 47.9474 -155.8704 253° West 464 534 40,000  Level FlightAware
Sun 09:35:00 PM 47.9093 -156.0530 253° West 464 534 40,000  Level FlightAware
Sun 09:36:00 PM 47.8710 -156.2354 253° West 464 534 40,000  Level FlightAware
Sun 09:37:00 PM 47.8323 -156.4174 252° West 464 534 40,000  Level FlightAware
Sun 09:38:00 PM 47.7966 -156.6226 252° West 473 544 40,000  Level FlightAware
Sun 09:39:00 PM 47.7550 -156.8129 252° West 473 544 40,000  Level FlightAware
Sun 09:40:00 PM 47.7130 -157.0029 252° West 473 544 40,000  Level FlightAware
Sun 09:41:00 PM 47.6708 -157.1926 252° West 473 544 40,000  Level FlightAware
Sun 09:42:00 PM 47.6282 -157.3819 251° West 473 544 40,000  Level FlightAware
Sun 09:43:00 PM 47.5853 -157.5710 251° West 473 544 40,000  Level FlightAware
Sun 09:44:00 PM 47.5421 -157.7597 251° West 473 544 40,000  Level FlightAware
Sun 09:45:00 PM 47.4986 -157.9482 251° West 473 544 40,000  Level FlightAware
Sun 09:46:00 PM 47.4548 -158.1363 251° West 473 544 40,000  Level FlightAware
Sun 09:46:37 PM 47.4167 -158.2667 251° West 483 556 40,000  Level Oakland Oceanic
Sun 09:47:00 PM 47.4107 -158.3241 251° West 473 544 40,000  Level FlightAware
Sun 09:48:00 PM 47.3663 -158.5116 251° West 473 544 40,000  Level FlightAware
Sun 09:49:00 PM 47.3215 -158.6987 251° West 473 544 40,000  Level FlightAware
Sun 09:50:00 PM 47.2765 -158.8856 250° West 473 544 40,000  Level FlightAware
Sun 09:51:00 PM 47.2312 -159.0721 250° West 473 544 40,000  Level FlightAware
Sun 09:52:00 PM 47.1698 -159.3099 250° West 483 556 40,000  Level FlightAware
Sun 09:53:00 PM 47.1277 -159.4829 250° West 483 556 40,000  Level FlightAware
Sun 09:54:00 PM 47.0854 -159.6555 250° West 483 556 40,000  Level FlightAware
Sun 09:55:00 PM 47.0428 -159.8279 250° West 483 556 40,000  Level FlightAware
Sun 09:56:00 PM 47.0000 -160.0000 258° West 483 556 40,000  Level FlightAware
Sun 09:56:15 PM 47.0000 -160.0000 258° West 493 567 40,000  Level Oakland Oceanic
Sun 09:57:00 PM 46.9700 -160.1988 257° West 483 556 40,000  Level FlightAware
Sun 09:58:00 PM 46.9396 -160.3974 257° West 483 556 40,000  Level FlightAware
Sun 09:59:00 PM 46.9088 -160.5957 257° West 483 556 40,000  Level FlightAware
Sun 10:00:00 PM 46.8778 -160.7938 257° West 483 556 40,000  Level FlightAware
Sun 10:00:35 PM 46.8667 -160.9000 257° West 500 575 40,000  Level Oakland Oceanic
Sun 10:01:00 PM 46.8463 -160.9917 257° West 483 556 40,000  Level FlightAware
Sun 10:02:00 PM 46.8182 -161.1670 257° West 493 567 40,000  Level FlightAware
Sun 10:03:00 PM 46.7867 -161.3607 257° West 493 567 40,000  Level FlightAware
Sun 10:04:00 PM 46.7550 -161.5542 256° West 493 567 40,000  Level FlightAware
Sun 10:05:00 PM 46.7229 -161.7475 256° West 493 567 40,000  Level FlightAware
Sun 10:06:00 PM 46.6735 -162.0699 256° West 500 575 40,000  Level FlightAware
Sun 10:07:00 PM 46.6401 -162.2641 256° West 500 575 40,000  Level FlightAware
Sun 10:08:00 PM 46.6065 -162.4580 256° West 500 575 40,000  Level FlightAware
Sun 10:09:00 PM 46.5725 -162.6517 256° West 500 575 40,000  Level FlightAware
Sun 10:10:00 PM 46.5381 -162.8451 255° West 500 575 40,000  Level FlightAware
Sun 10:11:00 PM 46.5035 -163.0383 255° West 500 575 40,000  Level FlightAware
Sun 10:12:00 PM 46.4685 -163.2313 255° West 500 575 40,000  Level FlightAware
Sun 10:13:00 PM 46.4332 -163.4240 255° West 500 575 40,000  Level FlightAware
Sun 10:14:00 PM 46.3976 -163.6164 255° West 500 575 40,000  Level FlightAware
Sun 10:15:00 PM 46.3616 -163.8086 255° West 500 575 40,000  Level FlightAware
Sun 10:16:00 PM 46.3253 -164.0005 255° West 500 575 40,000  Level FlightAware
Sun 10:17:00 PM 46.2887 -164.1922 254° West 500 575 40,000  Level FlightAware
Sun 10:18:00 PM 46.2518 -164.3837 254° West 500 575 40,000  Level FlightAware
Sun 10:18:11 PM 46.4000 -163.5833 255° West 503 579 40,000  Level Oakland Oceanic
Sun 10:19:00 PM 46.2146 -164.5748 254° West 500 575 40,000  Level FlightAware
Sun 10:20:00 PM 46.1771 -164.7657 254° West 500 575 40,000  Level FlightAware
Sun 10:21:00 PM 46.1392 -164.9564 254° West 500 575 40,000  Level FlightAware
Sun 10:22:00 PM 46.1010 -165.1468 254° West 500 575 40,000  Level FlightAware
Sun 10:23:00 PM 46.0625 -165.3369 254° West 500 575 40,000  Level FlightAware
Sun 10:24:00 PM 46.0258 -165.5036 254° West 503 579 40,000  Level FlightAware
Sun 10:25:00 PM 45.9866 -165.6942 253° West 503 579 40,000  Level FlightAware
Sun 10:26:00 PM 45.9471 -165.8845 253° West 503 579 40,000  Level FlightAware
Sun 10:27:00 PM 45.9073 -166.0745 253° West 503 579 40,000  Level FlightAware
Sun 10:28:00 PM 45.8672 -166.2643 253° West 503 579 40,000  Level FlightAware
Sun 10:28:22 PM 45.8667 -166.2500 253° West 504 580 40,000  Level Oakland Oceanic
Sun 10:29:00 PM 45.8267 -166.4538 253° West 503 579 40,000  Level FlightAware
Sun 10:30:00 PM 45.7860 -166.6429 253° West 503 579 40,000  Level FlightAware
Sun 10:31:00 PM 45.7449 -166.8319 253° West 503 579 40,000  Level FlightAware
Sun 10:32:00 PM 45.7035 -167.0205 252° West 503 579 40,000  Level FlightAware
Sun 10:33:00 PM 45.6618 -167.2089 252° West 503 579 40,000  Level FlightAware
Sun 10:34:00 PM 45.6196 -167.3870 252° West 504 580 40,000  Level FlightAware
Sun 10:35:00 PM 45.5773 -167.5755 252° West 504 580 40,000  Level FlightAware
Sun 10:36:00 PM 45.5348 -167.7638 252° West 504 580 40,000  Level FlightAware
Sun 10:37:00 PM 45.4919 -167.9517 252° West 504 580 40,000  Level FlightAware
Sun 10:38:00 PM 45.4487 -168.1394 252° West 504 580 40,000  Level FlightAware
Sun 10:39:00 PM 45.4052 -168.3268 252° West 504 580 40,000  Level FlightAware
Sun 10:40:00 PM 45.3614 -168.5139 251° West 504 580 40,000  Level FlightAware
Sun 10:41:00 PM 45.3172 -168.7007 251° West 504 580 40,000  Level FlightAware
Sun 10:42:00 PM 45.2728 -168.8872 251° West 504 580 40,000  Level FlightAware
Sun 10:42:17 PM 45.2667 -168.9000 251° West 513 590 40,000  Level Oakland Oceanic
Sun 10:43:00 PM 45.2281 -169.0734 251° West 504 580 40,000  Level FlightAware
Sun 10:44:00 PM 45.1831 -169.2593 251° West 504 580 40,000  Level FlightAware
Sun 10:45:00 PM 45.1378 -169.4449 251° West 504 580 40,000  Level FlightAware
Sun 10:46:00 PM 45.0921 -169.6302 251° West 504 580 40,000  Level FlightAware
Sun 10:47:00 PM 45.0462 -169.8153 251° West 504 580 40,000  Level FlightAware
Sun 10:48:00 PM 45.0000 -170.0000 258° West 513 590 40,000  Level FlightAware
Sun 10:48:57 PM 44.9667 -170.2000 258° West 523 602 40,000  Level Oakland Oceanic
Sun 10:49:00 PM 44.9700 -170.1983 258° West 513 590 40,000  Level FlightAware
Sun 10:50:00 PM 44.9395 -170.3965 258° West 513 590 40,000  Level FlightAware
Sun 10:51:00 PM 44.9088 -170.5944 258° West 513 590 40,000  Level FlightAware
Sun 10:52:00 PM 44.8777 -170.7921 257° West 513 590 40,000  Level FlightAware
Sun 10:53:00 PM 44.8463 -170.9896 257° West 513 590 40,000  Level FlightAware
Sun 10:54:00 PM 44.8145 -171.1869 257° West 513 590 40,000  Level FlightAware
Sun 10:55:00 PM 44.7757 -171.4090 257° West 523 602 40,000  Level FlightAware
Sun 10:55:57 PM 44.7500 -171.5833 257° West 518 596 40,000  Level Oakland Oceanic
Sun 10:56:00 PM 44.7426 -171.6097 257° West 523 602 40,000  Level FlightAware
Sun 10:57:00 PM 44.7092 -171.8102 257° West 523 602 40,000  Level FlightAware
Sun 10:58:00 PM 44.6754 -172.0105 257° West 523 602 40,000  Level FlightAware
Sun 10:59:00 PM 44.6413 -172.2105 256° West 523 602 40,000  Level FlightAware
Sun 11:00:00 PM 44.6068 -172.4103 256° West 523 602 40,000  Level FlightAware
Sun 11:01:00 PM 44.5720 -172.6098 256° West 523 602 40,000  Level FlightAware
Sun 11:02:00 PM 44.5434 -172.7866 256° West 518 596 40,000  Level FlightAware
Sun 11:03:00 PM 44.5078 -172.9863 256° West 518 596 40,000  Level FlightAware
Sun 11:04:00 PM 44.4718 -173.1858 256° West 518 596 40,000  Level FlightAware
Sun 11:05:00 PM 44.4355 -173.3850 256° West 518 596 40,000  Level FlightAware
Sun 11:06:00 PM 44.3988 -173.5839 255° West 518 596 40,000  Level FlightAware
Sun 11:07:00 PM 44.3617 -173.7827 255° West 518 596 40,000  Level FlightAware
Sun 11:08:00 PM 44.3244 -173.9811 255° West 518 596 40,000  Level FlightAware
Sun 11:09:00 PM 44.2866 -174.1793 255° West 518 596 40,000  Level FlightAware
Sun 11:09:48 PM 44.2667 -174.3000 255° West 526 605 40,000  Level Oakland Oceanic
Sun 11:10:00 PM 44.2486 -174.3773 255° West 518 596 40,000  Level FlightAware
Sun 11:11:00 PM 44.2102 -174.5750 255° West 518 596 40,000  Level FlightAware
Sun 11:12:00 PM 44.1714 -174.7724 255° West 518 596 40,000  Level FlightAware
Sun 11:13:00 PM 44.1323 -174.9696 254° West 518 596 40,000  Level FlightAware
Sun 11:14:00 PM 44.0929 -175.1665 254° West 518 596 40,000  Level FlightAware
Sun 11:15:00 PM 44.0532 -175.3631 254° West 518 596 40,000  Level FlightAware
Sun 11:16:00 PM 44.0280 -175.4988 254° West 526 605 40,000  Level FlightAware
Sun 11:17:00 PM 43.9870 -175.6976 254° West 526 605 40,000  Level FlightAware
Sun 11:18:00 PM 43.9457 -175.8962 254° West 526 605 40,000  Level FlightAware
Sun 11:19:00 PM 43.9040 -176.0945 254° West 526 605 40,000  Level FlightAware
Sun 11:20:00 PM 43.8620 -176.2925 254° West 526 605 40,000  Level FlightAware
Sun 11:21:00 PM 43.8197 -176.4902 253° West 526 605 40,000  Level FlightAware
Sun 11:22:00 PM 43.7770 -176.6877 253° West 526 605 40,000  Level FlightAware
Sun 11:23:00 PM 43.7339 -176.8848 253° West 526 605 40,000  Level FlightAware
Sun 11:23:40 PM 43.7167 -176.9833 253° West 521 600 40,000  Level Oakland Oceanic
Sun 11:24:00 PM 43.6906 -177.0817 253° West 526 605 40,000  Level FlightAware
Sun 11:25:00 PM 43.6469 -177.2783 253° West 526 605 40,000  Level FlightAware
Sun 11:26:00 PM 43.6028 -177.4746 253° West 526 605 40,000  Level FlightAware
Sun 11:27:00 PM 43.5584 -177.6707 253° West 526 605 40,000  Level FlightAware
Sun 11:28:00 PM 43.5137 -177.8664 252° West 526 605 40,000  Level FlightAware
Sun 11:29:00 PM 43.4686 -178.0618 252° West 526 605 40,000  Level FlightAware
Sun 11:30:00 PM 43.4395 -178.1985 252° West 521 600 40,000  Level FlightAware
Sun 11:31:00 PM 43.3921 -178.4000 252° West 521 600 40,000  Level FlightAware
Sun 11:32:00 PM 43.3443 -178.6011 252° West 521 600 40,000  Level FlightAware
Sun 11:33:00 PM 43.2962 -178.8019 252° West 521 600 40,000  Level FlightAware
Sun 11:34:00 PM 43.2477 -179.0024 252° West 521 600 40,000  Level FlightAware
Sun 11:35:00 PM 43.1988 -179.2026 251° West 521 600 40,000  Level FlightAware
Sun 11:36:00 PM 43.1497 -179.4024 251° West 521 600 40,000  Level FlightAware
Sun 11:37:00 PM 43.1001 -179.6019 251° West 521 600 40,000  Level FlightAware
Sun 11:37:41 PM 43.1000 -179.6000 251° West 525 604 40,000  Level Oakland Oceanic
Sun 11:38:00 PM 43.0502 -179.8011 251° West 521 600 40,000  Level FlightAware
Sun 11:39:00 PM 43.0000 -180.0000 258° West 521 600 40,000  Level FlightAware
Sun 11:39:52 PM 43.0000 180.0000 258° West 519 597 40,000  Level Oakland Oceanic
Sun 11:40:00 PM 42.9721 179.8162 258° West 521 600 40,000  Level FlightAware
Sun 11:41:00 PM 42.9438 179.6326 258° West 521 600 40,000  Level FlightAware
Sun 11:42:00 PM 42.9153 179.4491 258° West 521 600 40,000  Level FlightAware
Sun 11:43:00 PM 42.8865 179.2658 258° West 521 600 40,000  Level FlightAware
Sun 11:44:00 PM 42.8574 179.0827 258° West 525 604 40,000  Level FlightAware
Sun 11:45:00 PM 42.8280 178.8997 258° West 525 604 40,000  Level FlightAware
Sun 11:46:00 PM 42.7906 178.6696 257° West 519 597 40,000  Level FlightAware
Sun 11:47:00 PM 42.7594 178.4802 257° West 519 597 40,000  Level FlightAware
Sun 11:48:00 PM 42.7279 178.2911 257° West 519 597 40,000  Level FlightAware
Sun 11:49:00 PM 42.6961 178.1022 257° West 519 597 40,000  Level FlightAware
Sun 11:50:00 PM 42.6640 177.9135 257° West 519 597 40,000  Level FlightAware
Sun 11:51:00 PM 42.6316 177.7249 257° West 519 597 40,000  Level FlightAware
Sun 11:51:24 PM 42.6333 177.7167 257° West 517 595 40,000  Level Oakland Oceanic
Sun 11:52:00 PM 42.5988 177.5366 257° West 519 597 40,000  Level FlightAware
Sun 11:53:00 PM 42.5658 177.3484 257° West 519 597 40,000  Level FlightAware
Sun 11:54:00 PM 42.5325 177.1605 256° West 519 597 40,000  Level FlightAware
Sun 11:55:00 PM 42.4988 176.9727 256° West 519 597 40,000  Level FlightAware
Sun 11:56:00 PM 42.4649 176.7852 256° West 519 597 40,000  Level FlightAware
Sun 11:57:00 PM 42.4320 176.5908 256° West 517 595 40,000  Level FlightAware
Sun 11:58:00 PM 42.3974 176.4038 256° West 517 595 40,000  Level FlightAware
Sun 11:59:00 PM 42.3625 176.2171 256° West 517 595 40,000  Level FlightAware
Mon 12:00:00 AM 42.3273 176.0306 256° West 517 595 40,000  Level FlightAware
Mon 12:01:00 AM 42.2918 175.8443 255° West 517 595 40,000  Level FlightAware
Mon 12:02:00 AM 42.2559 175.6582 255° West 517 595 40,000  Level FlightAware
Mon 12:03:00 AM 42.2198 175.4723 255° West 517 595 40,000  Level FlightAware
Mon 12:04:00 AM 42.1834 175.2866 255° West 517 595 40,000  Level FlightAware
Mon 12:05:00 AM 42.1467 175.1012 255° West 517 595 40,000  Level FlightAware
Mon 12:05:17 AM 42.1500 175.1167 255° West 506 582 40,000  Level Oakland Oceanic
Mon 12:06:00 AM 42.1096 174.9159 255° West 517 595 40,000  Level FlightAware
Mon 12:07:00 AM 42.0723 174.7309 255° West 517 595 40,000  Level FlightAware
Mon 12:08:00 AM 42.0347 174.5461 255° West 517 595 40,000  Level FlightAware
Mon 12:09:00 AM 41.9968 174.3615 254° West 517 595 40,000  Level FlightAware
Mon 12:10:00 AM 41.9586 174.1771 254° West 517 595 40,000  Level FlightAware
Mon 12:11:00 AM 41.9308 174.0433 254° West 506 582 40,000  Level FlightAware
Mon 12:12:00 AM 41.8933 173.8651 254° West 506 582 40,000  Level FlightAware
Mon 12:13:00 AM 41.8555 173.6871 254° West 506 582 40,000  Level FlightAware
Mon 12:14:00 AM 41.8175 173.5094 254° West 506 582 40,000  Level FlightAware
Mon 12:15:00 AM 41.7792 173.3318 254° West 506 582 40,000  Level FlightAware
Mon 12:16:00 AM 41.7406 173.1545 254° West 506 582 40,000  Level FlightAware
Mon 12:17:00 AM 41.7017 172.9774 254° West 506 582 40,000  Level FlightAware
Mon 12:18:00 AM 41.6626 172.8005 253° West 506 582 40,000  Level FlightAware
Mon 12:19:00 AM 41.6232 172.6238 253° West 506 582 40,000  Level FlightAware
Mon 12:19:09 AM 41.6333 172.6667 253° West 488 562 40,000  Level Oakland Oceanic
Mon 12:20:00 AM 41.5835 172.4473 253° West 506 582 40,000  Level FlightAware
Mon 12:21:00 AM 41.5435 172.2711 253° West 506 582 40,000  Level FlightAware
Mon 12:22:00 AM 41.5033 172.0950 253° West 506 582 40,000  Level FlightAware
Mon 12:23:00 AM 41.4628 171.9192 253° West 506 582 40,000  Level FlightAware
Mon 12:24:00 AM 41.4221 171.7437 253° West 506 582 40,000  Level FlightAware
Mon 12:25:00 AM 41.3874 171.5938 253° West 488 562 40,000  Level FlightAware
Mon 12:26:00 AM 41.3454 171.4158 253° West 488 562 40,000  Level FlightAware
Mon 12:27:00 AM 41.3032 171.2380 252° West 488 562 40,000  Level FlightAware
Mon 12:28:00 AM 41.2607 171.0604 252° West 488 562 40,000  Level FlightAware
Mon 12:29:00 AM 41.2179 170.8831 252° West 488 562 40,000  Level FlightAware
Mon 12:30:00 AM 41.1749 170.7060 252° West 488 562 40,000  Level FlightAware
Mon 12:31:00 AM 41.1316 170.5292 252° West 488 562 40,000  Level FlightAware
Mon 12:32:00 AM 41.0880 170.3525 252° West 488 562 40,000  Level FlightAware
Mon 12:33:00 AM 41.0441 170.1761 252° West 488 562 40,000 500 Level FlightAware
Mon 12:33:00 AM 41.0833 170.3167 251° West 481 554 40,500  Climbing Oakland Oceanic
Mon 12:34:00 AM 41.0000 170.0000 266° West 488 562 40,000 259 Descending FlightAware
Mon 12:34:56 AM 41.0000 170.0000 266° West 481 554 41,000  Climbing Oakland Oceanic
Mon 12:35:00 AM 40.9905 169.8312 266° West 488 562 40,000 -938 Descending FlightAware
Mon 12:36:00 AM 40.9807 169.6625 266° West 488 562 40,000  Level FlightAware
Mon 12:37:00 AM 40.9707 169.4938 265° West 488 562 40,000  Level FlightAware
Mon 12:38:00 AM 40.9604 169.3251 265° West 488 562 40,000 250 Level FlightAware
Mon 12:39:00 AM 40.9604 169.3251 265° West 481 554 40,500 250 Climbing FlightAware
Mon 12:40:00 AM 40.9499 169.1566 265° West 481 554 40,500 250 Level FlightAware
Mon 12:41:00 AM 40.9357 168.9348 265° West 481 554 41,000 250 Climbing FlightAware
Mon 12:42:00 AM 40.9240 168.7575 265° West 481 554 41,000  Level FlightAware
Mon 12:43:00 AM 40.9121 168.5802 265° West 481 554 41,000  Level FlightAware
Mon 12:44:00 AM 40.8999 168.4030 265° West 481 554 41,000  Level FlightAware
Mon 12:45:00 AM 40.8874 168.2259 265° West 481 554 41,000  Level FlightAware
Mon 12:46:00 AM 40.8747 168.0488 265° West 481 554 41,000  Level FlightAware
Mon 12:46:52 AM 40.8667 167.9333 264° West 468 539 41,000  Level Oakland Oceanic
Mon 12:47:00 AM 40.8616 167.8719 264° West 481 554 41,000  Level FlightAware
Mon 12:48:00 AM 40.8483 167.6949 264° West 481 554 41,000  Level FlightAware
Mon 12:49:00 AM 40.8348 167.5181 264° West 481 554 41,000  Level FlightAware
Mon 12:50:00 AM 40.8209 167.3413 264° West 481 554 41,000  Level FlightAware
Mon 12:51:00 AM 40.8068 167.1646 264° West 481 554 41,000  Level FlightAware
Mon 12:52:00 AM 40.7925 166.9880 264° West 481 554 41,000  Level FlightAware
Mon 12:53:00 AM 40.7864 166.9100 264° West 468 539 41,000  Level FlightAware
Mon 12:54:00 AM 40.7722 166.7397 264° West 468 539 41,000  Level FlightAware
Mon 12:55:00 AM 40.7577 166.5694 264° West 468 539 41,000  Level FlightAware
Mon 12:56:00 AM 40.7430 166.3993 263° West 468 539 41,000  Level FlightAware
Mon 12:57:00 AM 40.7280 166.2292 263° West 468 539 41,000  Level FlightAware
Mon 12:58:00 AM 40.7127 166.0592 263° West 468 539 41,000  Level FlightAware
Mon 12:59:00 AM 40.6972 165.8893 263° West 468 539 41,000  Level FlightAware
Mon 01:00:00 AM 40.6815 165.7194 263° West 468 539 41,000  Level FlightAware
Mon 01:00:44 AM 40.6667 165.6167 263° West 454 522 41,000  Level Oakland Oceanic
Mon 01:01:00 AM 40.6655 165.5496 263° West 468 539 41,000  Level FlightAware
Mon 01:02:00 AM 40.6492 165.3799 263° West 468 539 41,000  Level FlightAware
Mon 01:03:00 AM 40.6328 165.2103 263° West 468 539 41,000  Level FlightAware
Mon 01:04:00 AM 40.6160 165.0408 263° West 468 539 41,000  Level FlightAware
Mon 01:05:00 AM 40.5990 164.8714 262° West 468 539 41,000  Level FlightAware
Mon 01:06:00 AM 40.5858 164.7840 262° West 454 522 41,000  Level FlightAware
Mon 01:07:00 AM 40.5689 164.6177 262° West 454 522 41,000  Level FlightAware
Mon 01:08:00 AM 40.5517 164.4515 262° West 454 522 41,000  Level FlightAware
Mon 01:09:00 AM 40.5344 164.2854 262° West 454 522 41,000  Level FlightAware
Mon 01:10:00 AM 40.5167 164.1194 262° West 454 522 41,000  Level FlightAware
Mon 01:11:00 AM 40.4989 163.9535 262° West 454 522 41,000  Level FlightAware
Mon 01:12:00 AM 40.4808 163.7876 262° West 454 522 41,000  Level FlightAware
Mon 01:13:00 AM 40.4625 163.6219 262° West 454 522 41,000  Level FlightAware
Mon 01:14:00 AM 40.4439 163.4562 262° West 454 522 41,000  Level FlightAware
Mon 01:15:00 AM 40.4251 163.2906 261° West 454 522 41,000  Level FlightAware
Mon 01:16:00 AM 40.4061 163.1251 261° West 454 522 41,000  Level FlightAware
Mon 01:17:00 AM 40.3868 162.9597 261° West 454 522 41,000  Level FlightAware
Mon 01:18:00 AM 40.3673 162.7944 261° West 454 522 41,000  Level FlightAware
Mon 01:19:00 AM 40.3476 162.6293 261° West 454 522 41,000  Level FlightAware
Mon 01:20:00 AM 40.3276 162.4642 261° West 454 522 41,000  Level FlightAware
Mon 01:21:00 AM 40.3074 162.2991 261° West 454 522 41,000  Level FlightAware
Mon 01:22:00 AM 40.2869 162.1342 261° West 454 522 41,000  Level FlightAware
Mon 01:23:00 AM 40.2663 161.9695 261° West 454 522 41,000  Level FlightAware
Mon 01:24:00 AM 40.2453 161.8047 261° West 454 522 41,000  Level FlightAware
Mon 01:25:00 AM 40.2242 161.6402 260° West 454 522 41,000  Level FlightAware
Mon 01:26:00 AM 40.2028 161.4756 260° West 454 522 41,000  Level FlightAware
Mon 01:27:00 AM 40.1812 161.3113 260° West 454 522 41,000  Level FlightAware
Mon 01:28:00 AM 40.1594 161.1470 260° West 454 522 41,000  Level FlightAware
Mon 01:29:00 AM 40.1373 160.9828 260° West 454 522 41,000  Level FlightAware
Mon 01:30:00 AM 40.1150 160.8187 260° West 454 522 41,000  Level FlightAware
Mon 01:31:00 AM 40.0925 160.6548 260° West 454 522 41,000  Level FlightAware
Mon 01:32:00 AM 40.0697 160.4909 260° West 454 522 41,000  Level FlightAware
Mon 01:33:00 AM 40.0467 160.3272 260° West 454 522 41,000  Level FlightAware
Mon 01:34:00 AM 40.0235 160.1635 259° West 454 522 41,000  Level FlightAware
Mon 01:35:00 AM 40.0000 160.0000 259° West 454 522 41,000  Level FlightAware
Mon 01:36:00 AM 39.9777 159.8447 259° West 454 522 41,000  Level FlightAware
Mon 01:37:00 AM 39.9552 159.6895 259° West 454 522 41,000  Level FlightAware
Mon 01:38:00 AM 39.9325 159.5344 259° West 454 522 41,000  Level FlightAware
Mon 01:39:00 AM 39.9096 159.3794 259° West 454 522 41,000  Level FlightAware
Mon 01:40:00 AM 39.8865 159.2245 259° West 454 522 41,000  Level FlightAware
Mon 01:41:00 AM 39.8632 159.0697 259° West 454 522 41,000  Level FlightAware
Mon 01:42:00 AM 39.8396 158.9150 259° West 454 522 41,000  Level FlightAware
Mon 01:43:00 AM 39.8159 158.7604 259° West 454 522 41,000  Level FlightAware
Mon 01:44:00 AM 39.7920 158.6059 259° West 454 522 41,000  Level FlightAware
Mon 01:45:00 AM 39.7678 158.4516 258° West 454 522 41,000  Level FlightAware
Mon 01:46:00 AM 39.7435 158.2973 258° West 454 522 41,000  Level FlightAware
Mon 01:47:00 AM 39.7189 158.1432 258° West 454 522 41,000  Level FlightAware
Mon 01:48:00 AM 39.6942 157.9891 258° West 454 522 41,000  Level FlightAware
Mon 01:49:00 AM 39.6693 157.8352 258° West 454 522 41,000  Level FlightAware
Mon 01:50:00 AM 39.6441 157.6814 258° West 454 522 41,000  Level FlightAware
Mon 01:51:00 AM 39.6187 157.5277 258° West 454 522 41,000  Level FlightAware
Mon 01:52:00 AM 39.5932 157.3741 258° West 454 522 41,000  Level FlightAware
Mon 01:53:00 AM 39.5674 157.2206 258° West 454 522 41,000  Level FlightAware
Mon 01:54:00 AM 39.5414 157.0672 258° West 454 522 41,000  Level FlightAware
Mon 01:55:00 AM 39.5153 156.9140 257° West 454 522 41,000  Level FlightAware
Mon 01:56:00 AM 39.4889 156.7609 257° West 454 522 41,000  Level FlightAware
Mon 01:57:00 AM 39.4623 156.6078 257° West 454 522 41,000  Level FlightAware
Mon 01:58:00 AM 39.4356 156.4550 257° West 454 522 41,000  Level FlightAware
Mon 01:59:00 AM 39.4086 156.3022 257° West 454 522 41,000  Level FlightAware
Mon 02:00:00 AM 39.3814 156.1495 257° West 454 522 41,000  Level FlightAware
Mon 02:01:00 AM 39.3540 155.9970 257° West 454 522 41,000  Level FlightAware
Mon 02:02:00 AM 39.3265 155.8445 257° West 454 522 41,000  Level FlightAware
Mon 02:03:00 AM 39.2987 155.6922 257° West 454 522 41,000  Level FlightAware
Mon 02:04:00 AM 39.2707 155.5401 257° West 454 522 41,000  Level FlightAware
Mon 02:05:00 AM 39.2426 155.3880 256° West 454 522 41,000  Level FlightAware
Mon 02:06:00 AM 39.2142 155.2361 256° West 454 522 41,000  Level FlightAware
Mon 02:07:00 AM 39.1856 155.0843 256° West 454 522 41,000  Level FlightAware
Mon 02:08:00 AM 39.1569 154.9326 256° West 454 522 41,000  Level FlightAware
Mon 02:09:00 AM 39.1279 154.7810 256° West 454 522 41,000  Level FlightAware
Mon 02:10:00 AM 39.0988 154.6296 256° West 454 522 41,000  Level FlightAware
Mon 02:11:00 AM 39.0695 154.4783 256° West 454 522 41,000  Level FlightAware
Mon 02:12:00 AM 39.0399 154.3271 256° West 454 522 41,000  Level FlightAware
Mon 02:13:00 AM 39.0102 154.1760 256° West 454 522 41,000  Level FlightAware
Mon 02:14:00 AM 38.9803 154.0251 256° West 454 522 41,000  Level FlightAware
Mon 02:15:00 AM 38.9501 153.8743 256° West 454 522 41,000  Level FlightAware
Mon 02:16:00 AM 38.9198 153.7236 255° West 454 522 41,000  Level FlightAware
Mon 02:17:00 AM 38.8893 153.5730 255° West 454 522 41,000  Level FlightAware
Mon 02:18:00 AM 38.8586 153.4226 255° West 454 522 41,000  Level FlightAware
Mon 02:19:00 AM 38.8277 153.2723 255° West 454 522 41,000  Level FlightAware
Mon 02:20:00 AM 38.7966 153.1222 255° West 454 522 41,000  Level FlightAware
Mon 02:21:00 AM 38.7653 152.9722 255° West 454 522 41,000  Level FlightAware
Mon 02:22:00 AM 38.7339 152.8223 255° West 454 522 41,000  Level FlightAware
Mon 02:23:00 AM 38.7022 152.6725 255° West 454 522 41,000  Level FlightAware
Mon 02:24:00 AM 38.6703 152.5229 255° West 454 522 41,000  Level FlightAware
Mon 02:25:00 AM 38.6383 152.3734 255° West 454 522 41,000  Level FlightAware
Mon 02:26:00 AM 38.6061 152.2240 255° West 454 522 41,000  Level FlightAware
Mon 02:27:00 AM 38.5736 152.0748 254° West 454 522 41,000  Level FlightAware
Mon 02:28:00 AM 38.5410 151.9257 254° West 454 522 41,000  Level FlightAware
Mon 02:29:00 AM 38.5082 151.7767 254° West 454 522 41,000  Level FlightAware
Mon 02:30:00 AM 38.4752 151.6279 254° West 454 522 41,000  Level FlightAware
Mon 02:31:00 AM 38.4421 151.4792 254° West 454 522 41,000  Level FlightAware
Mon 02:32:00 AM 38.4087 151.3307 254° West 454 522 41,000  Level FlightAware
Mon 02:33:00 AM 38.3751 151.1823 254° West 454 522 41,000  Level FlightAware
Mon 02:34:00 AM 38.3414 151.0340 254° West 454 522 41,000  Level FlightAware
Mon 02:35:00 AM 38.3075 150.8859 254° West 454 522 41,000  Level FlightAware
Mon 02:36:00 AM 38.2733 150.7379 254° West 454 522 41,000  Level FlightAware
Mon 02:37:00 AM 38.2391 150.5900 253° West 454 522 41,000  Level FlightAware
Mon 02:38:00 AM 38.2046 150.4423 253° West 454 522 41,000  Level FlightAware
Mon 02:39:00 AM 38.1699 150.2947 253° West 454 522 41,000  Level FlightAware
Mon 02:40:00 AM 38.1350 150.1473 253° West 454 522 41,000  Level FlightAware
Mon 02:41:00 AM 38.0978 149.9909 253° West  Level FlightAware
Mon 02:42:00 AM 38.0965 149.9815 257° West  Level FlightAware
Mon 02:43:00 AM 38.0665 149.8227 257° West  Level FlightAware
Mon 02:44:00 AM 38.0363 149.6640 256° West  Level FlightAware
Mon 02:45:00 AM 38.0058 149.5054 256° West  Level FlightAware
Mon 02:46:00 AM 37.9752 149.3470 256° West  Level FlightAware
Mon 02:47:00 AM 37.9443 149.1887 256° West  Level FlightAware
Mon 02:48:00 AM 37.9132 149.0306 256° West  Level FlightAware
Mon 02:49:00 AM 37.8819 148.8725 256° West  Level FlightAware
Mon 02:50:00 AM 37.8504 148.7147 256° West  Level FlightAware
Mon 02:51:00 AM 37.8187 148.5569 256° West  Level FlightAware
Mon 02:52:00 AM 37.7867 148.3993 256° West  Level FlightAware
Mon 02:53:00 AM 37.7546 148.2418 256° West  Level FlightAware
Mon 02:54:00 AM 37.7223 148.0845 255° West  Level FlightAware
Mon 02:55:00 AM 37.6897 147.9273 255° West  Level FlightAware
Mon 02:56:00 AM 37.6568 147.7702 255° West  Level FlightAware
Mon 02:57:00 AM 37.6233 147.6135 255° West  Level FlightAware
Mon 02:58:00 AM 37.5896 147.4569 255° West  Level FlightAware
Mon 02:59:00 AM 37.5557 147.3004 255° West  Level FlightAware
Mon 03:00:00 AM 37.5215 147.1441 255° West  Level FlightAware
Mon 03:01:00 AM 37.4872 146.9880 255° West  Level FlightAware
Mon 03:02:00 AM 37.4527 146.8319 254° West  Level FlightAware
Mon 03:03:00 AM 37.4179 146.6760 254° West  Level FlightAware
Mon 03:04:00 AM 37.3830 146.5203 254° West  Level FlightAware
Mon 03:05:00 AM 37.3478 146.3647 254° West  Level FlightAware
Mon 03:06:00 AM 37.3125 146.2092 254° West  Level FlightAware
Mon 03:07:00 AM 37.2769 146.0540 254° West  Level FlightAware
Mon 03:08:00 AM 37.2412 145.8988 254° West  Level FlightAware
Mon 03:09:00 AM 37.2052 145.7438 254° West  Level FlightAware
Mon 03:10:00 AM 37.1768 145.5869 263° West  Level FlightAware
Mon 03:11:00 AM 37.1602 145.4269 263° West  Level FlightAware
Mon 03:12:00 AM 37.1433 145.2670 263° West  Level FlightAware
Mon 03:12:03 AM 37.1420 145.4370 263° West 425 489 41,000  Level FlightAware
Mon 03:12:43 AM 37.1050 145.3500 242° Southwest 424 488 41,000  Level FlightAware
Mon 03:13:13 AM 37.0770 145.2840 242° Southwest 425 489 41,000  Level FlightAware
Mon 03:13:48 AM 37.0450 145.2070 243° Southwest 426 490 41,000  Level FlightAware
Mon 03:14:25 AM 37.0150 145.1360 242° Southwest 426 490 41,000  Level FlightAware
Mon 03:15:00 AM 36.9810 145.0570 242° Southwest 429 494 41,000  Level FlightAware
Mon 03:15:35 AM 36.9490 144.9830 242° Southwest 427 491 41,000  Level FlightAware
Mon 03:16:17 AM 36.9110 144.8930 242° Southwest 428 493 41,000  Level FlightAware
Mon 03:16:58 AM 36.8680 144.7930 242° Southwest 424 488 41,000  Level FlightAware
Mon 03:17:34 AM 36.8330 144.7110 242° Southwest 429 494 41,000  Level FlightAware
Mon 03:18:05 AM 36.8080 144.6520 242° Southwest 429 494 41,000  Level FlightAware
Mon 03:18:40 AM 36.7750 144.5770 241° Southwest 428 493 41,000  Level FlightAware
Mon 03:19:18 AM 36.7390 144.4930 242° Southwest 423 487 41,000  Level FlightAware
Mon 03:20:15 AM 36.6850 144.3690 242° Southwest 427 491 41,000 -133 Level FlightAware
Mon 03:20:48 AM 36.6530 144.2960 241° Southwest 422 486 40,800 -870 Descending FlightAware
Mon 03:21:24 AM 36.6200 144.2210 241° Southwest 424 488 40,000 -1,371 Descending FlightAware
Mon 03:21:58 AM 36.5870 144.1450 242° Southwest 424 488 39,200 -1,315 Descending FlightAware
Mon 03:22:37 AM 36.5500 144.0610 241° Southwest 421 484 38,400 -1,216 Descending FlightAware
Mon 03:23:12 AM 36.5170 143.9850 242° Southwest 415 478 37,700 -1,292 Descending FlightAware
Mon 03:23:42 AM 36.4890 143.9230 241° Southwest 416 479 37,000 -1,477 Descending FlightAware
Mon 03:24:17 AM 36.4570 143.8470 242° Southwest 420 483 36,100 -1,680 Descending FlightAware
Mon 03:24:57 AM 36.4190 143.7620 241° Southwest 425 489 34,900 -1,185 Descending FlightAware
Mon 03:25:38 AM 36.3840 143.6850 241° Southwest 431 496 34,500 -312 Descending FlightAware
Mon 03:26:14 AM 36.3550 143.6190 241° Southwest 431 496 34,500 -2,174 Level FlightAware
Mon 03:26:47 AM 36.3150 143.5280 241° Southwest 440 506 32,000 -2,206 Descending FlightAware
Mon 03:27:22 AM 36.2780 143.4460 241° Southwest 440 506 32,000  Level FlightAware
Mon 03:28:02 AM 36.2370 143.3550 241° Southwest 440 506 32,000  Level FlightAware
Mon 03:28:37 AM 36.2010 143.2750 241° Southwest 443 510 32,000  Level FlightAware
Mon 03:29:22 AM 36.1590 143.1820 241° Southwest 446 513 32,000  Level FlightAware
Mon 03:29:57 AM 36.1200 143.0950 241° Southwest 446 513 32,000  Level FlightAware
Mon 03:30:27 AM 36.0910 143.0300 241° Southwest 446 513 32,000  Level FlightAware
Mon 03:31:07 AM 36.0500 142.9410 240° Southwest 447 514 32,000  Level FlightAware
Mon 03:31:42 AM 36.0140 142.8610 241° Southwest 448 516 32,000 -429 Level FlightAware
Mon 03:32:17 AM 35.9780 142.7820 241° Southwest 450 518 31,500 -1,440 Descending FlightAware
Mon 03:32:57 AM 35.9390 142.6960 241° Southwest 440 506 30,200 -2,080 Descending FlightAware
Mon 03:33:32 AM 35.9030 142.6180 240° Southwest 437 503 28,900 -1,435 Descending FlightAware
Mon 03:34:29 AM 35.8540 142.5120 240° Southwest 433 498 28,000 -2,400 Descending FlightAware
Mon 03:35:02 AM 35.8140 142.4240 241° Southwest 419 482 25,300 -2,467 Descending FlightAware
Mon 03:35:59 AM 35.7710 142.3210 243° Southwest 419 482 24,300 -1,579 Descending FlightAware
Mon 03:36:37 AM 35.7820 142.2180 278° West 866 997 22,800 -2,093 Descending FlightAware
Mon 03:36:42 AM 35.7820 142.2130 270° West 613 705 22,800 -1,371 Level FlightAware
Mon 03:37:12 AM 35.7860 142.1390 274° West 378 435 22,000 -1,971 Descending FlightAware
Mon 03:37:52 AM 35.7900 142.0540 273° West 385 443 20,500 -2,160 Descending FlightAware
Mon 03:38:27 AM 35.7950 141.9760 275° West 392 451 19,300 -1,853 Descending FlightAware
Mon 03:39:00 AM 35.7980 141.9130 273° West 395 455 18,400 -1,667 Descending FlightAware
Mon 03:39:39 AM 35.8030 141.8180 274° West 394 453 17,300 -1,538 Descending FlightAware
Mon 03:40:18 AM 35.8070 141.7330 273° West 390 449 16,400 -1,482 Descending FlightAware
Mon 03:41:04 AM 35.8120 141.6360 274° West 386 444 15,200 -1,465 Descending FlightAware
Mon 03:41:44 AM 35.8170 141.5510 274° West 377 434 14,300 -1,011 Descending FlightAware
Mon 03:42:33 AM 35.8220 141.4550 274° West 375 432 13,700 -1,556 Descending FlightAware
Mon 03:43:05 AM 35.8270 141.3760 274° West 363 418 12,200 -2,029 Descending FlightAware
Mon 03:43:41 AM 35.8320 141.3050 275° West 360 414 11,400 -1,457 Descending FlightAware
Mon 03:44:15 AM 35.8370 141.2310 275° West 354 407 10,500 -870 Descending FlightAware
Mon 03:44:50 AM 35.8420 141.1620 275° West 317 365 10,400 -85 Descending FlightAware
Mon 03:45:26 AM 35.8480 141.1020 277° West 284 327 10,400 -369 Level FlightAware
Mon 03:45:55 AM 35.8520 141.0560 276° West 275 316 10,000 -1,091 Descending FlightAware
Mon 03:46:10 AM 35.8540 141.0320 276° West 275 316 9,600 -1,548 Descending FlightAware
Mon 03:46:26 AM 35.8560 141.0080 276° West 278 320 9,200 -1,350 Descending FlightAware
Mon 03:46:50 AM 35.8630 140.9710 283° West 278 320 8,700 -1,231 Descending FlightAware
Mon 03:47:05 AM 35.8680 140.9470 284° West 276 318 8,400 -1,200 Descending FlightAware
Mon 03:47:25 AM 35.8740 140.9190 285° West 275 316 8,000 -1,171 Descending FlightAware
Mon 03:47:46 AM 35.8810 140.8860 285° West 272 313 7,600 -1,029 Descending FlightAware
Mon 03:48:00 AM 35.8850 140.8670 285° West 269 310 7,400 -1,227 Descending FlightAware
Mon 03:48:30 AM 35.8950 140.8200 285° West 270 311 6,700 -1,294 Descending FlightAware
Mon 03:48:51 AM 35.9020 140.7870 285° West 272 313 6,300 -585 Descending FlightAware
Mon 03:49:11 AM 35.9080 140.7570 284° West 271 312 6,300  Level FlightAware
Mon 03:49:29 AM 35.9130 140.7290 282° West 270 311 6,300  Level FlightAware
Mon 03:49:53 AM 35.9200 140.6950 284° West 272 313 6,300  Level FlightAware
Mon 03:50:13 AM 35.9270 140.6640 286° West 272 313 6,300  Level FlightAware
Mon 03:50:29 AM 35.9320 140.6390 284° West 272 313 6,300  Level FlightAware
Mon 03:50:50 AM 35.9380 140.6080 283° West 273 314 6,300  Level FlightAware
Mon 03:51:06 AM 35.9430 140.5840 284° West 273 314 6,300  Level FlightAware
Mon 03:51:25 AM 35.9490 140.5550 284° West 273 314 6,300  Level FlightAware
Mon 03:51:41 AM 35.9540 140.5300 284° West 274 315 6,300  Level FlightAware
Mon 03:52:01 AM 35.9600 140.5000 284° West 274 315 6,300 -300 Level FlightAware
Mon 03:52:21 AM 35.9660 140.4700 284° West 273 314 6,100 -833 Descending FlightAware
Mon 03:52:37 AM 35.9710 140.4450 284° West 273 314 5,800 -1,071 Descending FlightAware
Mon 03:52:49 AM 35.9740 140.4270 282° West 272 313 5,600 -1,350 Descending FlightAware
Mon 03:53:17 AM 35.9720 140.3840 267° West 272 313 4,900 -1,500 Descending FlightAware
Mon 03:53:33 AM 35.9700 140.3590 264° West 274 315 4,500 -1,333 Descending FlightAware
Mon 03:53:53 AM 35.9670 140.3290 263° West 275 316 4,100 -1,286 Descending FlightAware
Mon 03:54:01 AM 35.9650 140.3170 258° West 273 314 3,900 -1,000 Descending FlightAware
Mon 03:54:05 AM 35.9630 140.3100 251° West 271 312 3,900 -1,000 Level FlightAware
Mon 03:54:13 AM 35.9580 140.3000 238° Southwest 265 305 3,700 -1,286 Descending FlightAware
Mon 03:54:33 AM 35.9440 140.2760 234° Southwest 247 284 3,300 -1,071 Descending FlightAware
Mon 03:54:41 AM 35.9380 140.2680 227° Southwest 237 273 3,200 -750 Descending FlightAware
Mon 03:54:49 AM 35.9320 140.2630 214° Southwest 230 265 3,100 -353 Descending FlightAware
Mon 03:54:58 AM 35.9230 140.2590 200° South 225 259 3,100  Level FlightAware
Mon 03:55:01 AM 35.9180 140.2580 189° South 226 260 3,100  Level FlightAware
Mon 03:55:26 AM 35.8990 140.2740 146° Southeast 204 235 3,100 -162 Level FlightAware
Mon 03:55:38 AM 35.8910 140.2840 135° Southeast 198 228 3,000 -960 Descending FlightAware
Mon 03:55:51 AM 35.8810 140.2920 147° Southeast 190 219 2,700 -1,135 Descending FlightAware
Mon 03:56:15 AM 35.8630 140.3040 152° Southeast 169 194 2,300 -857 Descending FlightAware
Mon 03:56:33 AM 35.8510 140.3130 149° Southeast 154 177 2,100 -750 Descending FlightAware
Mon 03:56:55 AM 35.8390 140.3210 152° Southeast 136 157 1,800 -789 Descending FlightAware
Mon 03:57:11 AM 35.8310 140.3270 149° Southeast 133 153 1,600 -667 Descending FlightAware
Mon 03:57:31 AM 35.8200 140.3350 149° Southeast 132 152 1,400 -600 Descending FlightAware
Mon 03:57:51 AM 35.8090 140.3430 149° Southeast 133 153 1,200 -686 Descending FlightAware
Mon 03:58:06 AM 35.8010 140.3490 149° Southeast 134 154 1,000 -667 Descending FlightAware
Mon 03:58:27 AM 35.7900 140.3570 149° Southeast 135 155 800 -563 Descending FlightAware
Mon 03:58:38 AM 35.7840 140.3610 152° Southeast 136 157 700 -267 Descending FlightAware
Mon 03:59:12 AM 35.7680 140.3730 149° Southeast 135 155 600 -176 Descending FlightAware

Login

Don't have an account? Register now (free) for customized features, flight alerts, and more!